sensor_id;sensor_type;location;lat;lon;timestamp;P1;durP1;ratioP1;P2;durP2;ratioP2
17171;SDS011;8701;50.150;8.756;2022-11-20T00:01:12;13.93;;;9.57;;
17171;SDS011;8701;50.150;8.756;2022-11-20T00:05:17;16.43;;;9.83;;
17171;SDS011;8701;50.150;8.756;2022-11-20T00:09:20;14.50;;;9.77;;
17171;SDS011;8701;50.150;8.756;2022-11-20T00:13:22;15.40;;;10.27;;
17171;SDS011;8701;50.150;8.756;2022-11-20T00:17:24;17.23;;;10.70;;
17171;SDS011;8701;50.150;8.756;2022-11-20T00:21:28;13.73;;;9.73;;
17171;SDS011;8701;50.150;8.756;2022-11-20T00:25:31;12.90;;;9.53;;
17171;SDS011;8701;50.150;8.756;2022-11-20T00:29:35;13.80;;;9.43;;
17171;SDS011;8701;50.150;8.756;2022-11-20T00:33:38;16.07;;;10.10;;
17171;SDS011;8701;50.150;8.756;2022-11-20T00:37:41;14.83;;;9.30;;
17171;SDS011;8701;50.150;8.756;2022-11-20T00:41:44;15.53;;;10.33;;
17171;SDS011;8701;50.150;8.756;2022-11-20T00:45:46;15.13;;;9.73;;
17171;SDS011;8701;50.150;8.756;2022-11-20T00:49:48;14.33;;;9.60;;
17171;SDS011;8701;50.150;8.756;2022-11-20T00:53:54;16.90;;;10.27;;
17171;SDS011;8701;50.150;8.756;2022-11-20T00:57:57;14.87;;;9.90;;
17171;SDS011;8701;50.150;8.756;2022-11-20T01:01:59;14.00;;;9.70;;
17171;SDS011;8701;50.150;8.756;2022-11-20T01:06:01;16.90;;;11.03;;
17171;SDS011;8701;50.150;8.756;2022-11-20T01:10:06;13.80;;;9.73;;
17171;SDS011;8701;50.150;8.756;2022-11-20T01:14:09;14.07;;;10.17;;
17171;SDS011;8701;50.150;8.756;2022-11-20T01:18:13;16.20;;;9.90;;
17171;SDS011;8701;50.150;8.756;2022-11-20T01:22:15;17.90;;;10.90;;
17171;SDS011;8701;50.150;8.756;2022-11-20T01:26:19;14.73;;;9.93;;
17171;SDS011;8701;50.150;8.756;2022-11-20T01:30:23;18.07;;;10.20;;
17171;SDS011;8701;50.150;8.756;2022-11-20T01:34:25;17.90;;;10.90;;
17171;SDS011;8701;50.150;8.756;2022-11-20T01:38:27;15.33;;;10.10;;
17171;SDS011;8701;50.150;8.756;2022-11-20T01:42:31;15.83;;;10.30;;
17171;SDS011;8701;50.150;8.756;2022-11-20T01:46:52;16.37;;;11.17;;
17171;SDS011;8701;50.150;8.756;2022-11-20T01:50:58;17.70;;;11.63;;
17171;SDS011;8701;50.150;8.756;2022-11-20T01:55:03;14.77;;;10.50;;
17171;SDS011;8701;50.150;8.756;2022-11-20T01:59:11;18.57;;;11.97;;
17171;SDS011;8701;50.150;8.756;2022-11-20T02:03:17;18.70;;;11.57;;
17171;SDS011;8701;50.150;8.756;2022-11-20T02:07:21;16.27;;;10.70;;
17171;SDS011;8701;50.150;8.756;2022-11-20T02:11:25;16.53;;;11.27;;
17171;SDS011;8701;50.150;8.756;2022-11-20T02:15:28;16.33;;;10.57;;
17171;SDS011;8701;50.150;8.756;2022-11-20T02:19:31;15.57;;;10.47;;
17171;SDS011;8701;50.150;8.756;2022-11-20T02:23:36;14.03;;;10.37;;
17171;SDS011;8701;50.150;8.756;2022-11-20T02:27:42;15.67;;;10.67;;
17171;SDS011;8701;50.150;8.756;2022-11-20T02:31:45;15.90;;;10.20;;
17171;SDS011;8701;50.150;8.756;2022-11-20T02:35:47;15.30;;;10.47;;
17171;SDS011;8701;50.150;8.756;2022-11-20T02:39:50;21.10;;;10.70;;
17171;SDS011;8701;50.150;8.756;2022-11-20T02:43:54;20.07;;;11.83;;
17171;SDS011;8701;50.150;8.756;2022-11-20T02:47:56;16.43;;;10.30;;
17171;SDS011;8701;50.150;8.756;2022-11-20T02:51:59;15.17;;;10.13;;
17171;SDS011;8701;50.150;8.756;2022-11-20T02:56:01;15.70;;;10.57;;
17171;SDS011;8701;50.150;8.756;2022-11-20T03:00:05;15.60;;;10.20;;
17171;SDS011;8701;50.150;8.756;2022-11-20T03:04:08;20.80;;;11.40;;
17171;SDS011;8701;50.150;8.756;2022-11-20T03:08:10;18.40;;;11.37;;
17171;SDS011;8701;50.150;8.756;2022-11-20T03:12:13;17.67;;;10.97;;
17171;SDS011;8701;50.150;8.756;2022-11-20T03:16:17;16.80;;;10.80;;
17171;SDS011;8701;50.150;8.756;2022-11-20T03:20:22;22.07;;;11.17;;
17171;SDS011;8701;50.150;8.756;2022-11-20T03:24:24;19.17;;;11.50;;
17171;SDS011;8701;50.150;8.756;2022-11-20T03:28:27;17.10;;;11.20;;
17171;SDS011;8701;50.150;8.756;2022-11-20T03:32:31;15.57;;;10.50;;
17171;SDS011;8701;50.150;8.756;2022-11-20T03:36:33;18.53;;;11.20;;
17171;SDS011;8701;50.150;8.756;2022-11-20T03:40:36;17.23;;;9.43;;
17171;SDS011;8701;50.150;8.756;2022-11-20T03:44:38;16.00;;;10.53;;
17171;SDS011;8701;50.150;8.756;2022-11-20T03:48:42;17.40;;;10.50;;
17171;SDS011;8701;50.150;8.756;2022-11-20T03:52:44;13.80;;;10.07;;
17171;SDS011;8701;50.150;8.756;2022-11-20T03:56:47;17.80;;;11.40;;
17171;SDS011;8701;50.150;8.756;2022-11-20T04:00:49;16.63;;;11.20;;
17171;SDS011;8701;50.150;8.756;2022-11-20T04:04:52;16.23;;;10.50;;
17171;SDS011;8701;50.150;8.756;2022-11-20T04:08:55;17.90;;;10.20;;
17171;SDS011;8701;50.150;8.756;2022-11-20T04:12:58;15.00;;;9.97;;
17171;SDS011;8701;50.150;8.756;2022-11-20T04:17:00;19.33;;;10.80;;
17171;SDS011;8701;50.150;8.756;2022-11-20T04:21:04;15.30;;;10.70;;
17171;SDS011;8701;50.150;8.756;2022-11-20T04:25:07;19.00;;;11.10;;
17171;SDS011;8701;50.150;8.756;2022-11-20T04:29:10;17.57;;;10.43;;
17171;SDS011;8701;50.150;8.756;2022-11-20T04:33:13;16.37;;;10.70;;
17171;SDS011;8701;50.150;8.756;2022-11-20T04:37:16;16.27;;;10.03;;
17171;SDS011;8701;50.150;8.756;2022-11-20T04:41:19;12.13;;;9.50;;
17171;SDS011;8701;50.150;8.756;2022-11-20T04:45:24;14.73;;;9.77;;
17171;SDS011;8701;50.150;8.756;2022-11-20T04:49:26;19.70;;;12.23;;
17171;SDS011;8701;50.150;8.756;2022-11-20T04:53:30;14.33;;;10.13;;
17171;SDS011;8701;50.150;8.756;2022-11-20T04:57:32;16.50;;;11.20;;
17171;SDS011;8701;50.150;8.756;2022-11-20T05:01:34;16.50;;;10.70;;
17171;SDS011;8701;50.150;8.756;2022-11-20T05:05:37;14.50;;;10.80;;
17171;SDS011;8701;50.150;8.756;2022-11-20T05:09:40;17.33;;;11.53;;
17171;SDS011;8701;50.150;8.756;2022-11-20T05:13:42;17.03;;;11.03;;
17171;SDS011;8701;50.150;8.756;2022-11-20T05:17:46;15.77;;;10.30;;
17171;SDS011;8701;50.150;8.756;2022-11-20T05:21:49;19.53;;;10.30;;
17171;SDS011;8701;50.150;8.756;2022-11-20T05:25:53;17.87;;;11.30;;
17171;SDS011;8701;50.150;8.756;2022-11-20T05:29:56;19.70;;;11.70;;
17171;SDS011;8701;50.150;8.756;2022-11-20T05:33:58;17.50;;;10.90;;
17171;SDS011;8701;50.150;8.756;2022-11-20T05:38:00;22.23;;;11.93;;
17171;SDS011;8701;50.150;8.756;2022-11-20T05:42:04;17.83;;;11.67;;
17171;SDS011;8701;50.150;8.756;2022-11-20T05:46:24;18.63;;;11.33;;
17171;SDS011;8701;50.150;8.756;2022-11-20T05:50:26;20.77;;;12.30;;
17171;SDS011;8701;50.150;8.756;2022-11-20T05:54:29;18.23;;;12.80;;
17171;SDS011;8701;50.150;8.756;2022-11-20T05:58:33;22.30;;;12.60;;
17171;SDS011;8701;50.150;8.756;2022-11-20T06:02:35;22.87;;;13.10;;
17171;SDS011;8701;50.150;8.756;2022-11-20T06:06:38;21.90;;;12.77;;
17171;SDS011;8701;50.150;8.756;2022-11-20T06:10:40;21.80;;;12.47;;
17171;SDS011;8701;50.150;8.756;2022-11-20T06:14:43;20.40;;;12.30;;
17171;SDS011;8701;50.150;8.756;2022-11-20T06:18:46;17.67;;;11.77;;
17171;SDS011;8701;50.150;8.756;2022-11-20T06:22:48;21.13;;;12.80;;
17171;SDS011;8701;50.150;8.756;2022-11-20T06:26:51;19.50;;;12.37;;
17171;SDS011;8701;50.150;8.756;2022-11-20T06:30:54;27.20;;;11.83;;
17171;SDS011;8701;50.150;8.756;2022-11-20T06:34:56;19.77;;;12.13;;
17171;SDS011;8701;50.150;8.756;2022-11-20T06:38:58;21.63;;;11.23;;
17171;SDS011;8701;50.150;8.756;2022-11-20T06:43:01;24.00;;;11.40;;
17171;SDS011;8701;50.150;8.756;2022-11-20T06:47:04;21.60;;;12.47;;
17171;SDS011;8701;50.150;8.756;2022-11-20T06:51:07;22.70;;;12.93;;
17171;SDS011;8701;50.150;8.756;2022-11-20T06:55:09;23.60;;;13.10;;
17171;SDS011;8701;50.150;8.756;2022-11-20T06:59:12;23.10;;;13.13;;
17171;SDS011;8701;50.150;8.756;2022-11-20T07:03:15;23.03;;;14.47;;
17171;SDS011;8701;50.150;8.756;2022-11-20T07:07:17;31.63;;;14.57;;
17171;SDS011;8701;50.150;8.756;2022-11-20T07:11:20;24.23;;;14.57;;
17171;SDS011;8701;50.150;8.756;2022-11-20T07:15:22;23.97;;;13.17;;
17171;SDS011;8701;50.150;8.756;2022-11-20T07:19:27;23.93;;;12.43;;
17171;SDS011;8701;50.150;8.756;2022-11-20T07:23:29;25.07;;;12.80;;
17171;SDS011;8701;50.150;8.756;2022-11-20T07:27:31;25.60;;;13.97;;
17171;SDS011;8701;50.150;8.756;2022-11-20T07:31:34;26.97;;;14.00;;
17171;SDS011;8701;50.150;8.756;2022-11-20T07:35:37;27.80;;;13.93;;
17171;SDS011;8701;50.150;8.756;2022-11-20T07:39:39;31.40;;;15.00;;
17171;SDS011;8701;50.150;8.756;2022-11-20T07:43:42;26.00;;;13.90;;
17171;SDS011;8701;50.150;8.756;2022-11-20T07:47:44;29.10;;;14.57;;
17171;SDS011;8701;50.150;8.756;2022-11-20T07:51:49;27.97;;;14.17;;
17171;SDS011;8701;50.150;8.756;2022-11-20T07:55:52;26.37;;;15.03;;
17171;SDS011;8701;50.150;8.756;2022-11-20T07:59:54;27.50;;;15.20;;
17171;SDS011;8701;50.150;8.756;2022-11-20T08:03:56;25.57;;;14.07;;
17171;SDS011;8701;50.150;8.756;2022-11-20T08:08:00;22.77;;;13.57;;
17171;SDS011;8701;50.150;8.756;2022-11-20T08:12:02;31.77;;;15.10;;
17171;SDS011;8701;50.150;8.756;2022-11-20T08:16:24;33.20;;;16.67;;
17171;SDS011;8701;50.150;8.756;2022-11-20T08:20:27;37.30;;;17.97;;
17171;SDS011;8701;50.150;8.756;2022-11-20T08:24:30;29.03;;;15.40;;
17171;SDS011;8701;50.150;8.756;2022-11-20T08:28:33;30.67;;;16.07;;
17171;SDS011;8701;50.150;8.756;2022-11-20T08:32:35;27.53;;;14.70;;
17171;SDS011;8701;50.150;8.756;2022-11-20T08:36:38;30.73;;;15.43;;
17171;SDS011;8701;50.150;8.756;2022-11-20T08:40:41;30.97;;;15.93;;
17171;SDS011;8701;50.150;8.756;2022-11-20T08:45:05;31.47;;;15.73;;
17171;SDS011;8701;50.150;8.756;2022-11-20T08:49:08;29.37;;;15.10;;
17171;SDS011;8701;50.150;8.756;2022-11-20T08:53:12;30.17;;;14.77;;
17171;SDS011;8701;50.150;8.756;2022-11-20T08:57:15;27.70;;;15.00;;
17171;SDS011;8701;50.150;8.756;2022-11-20T09:01:18;32.30;;;16.47;;
17171;SDS011;8701;50.150;8.756;2022-11-20T09:05:21;31.97;;;16.20;;
17171;SDS011;8701;50.150;8.756;2022-11-20T09:09:23;27.20;;;14.20;;
17171;SDS011;8701;50.150;8.756;2022-11-20T09:13:27;29.53;;;15.43;;
17171;SDS011;8701;50.150;8.756;2022-11-20T09:17:30;29.07;;;14.37;;
17171;SDS011;8701;50.150;8.756;2022-11-20T09:21:32;30.53;;;15.70;;
17171;SDS011;8701;50.150;8.756;2022-11-20T09:25:34;29.10;;;15.70;;
17171;SDS011;8701;50.150;8.756;2022-11-20T09:29:38;34.53;;;15.80;;
17171;SDS011;8701;50.150;8.756;2022-11-20T09:33:40;32.10;;;16.03;;
17171;SDS011;8701;50.150;8.756;2022-11-20T09:37:43;36.60;;;17.07;;
17171;SDS011;8701;50.150;8.756;2022-11-20T09:41:50;32.60;;;17.80;;
17171;SDS011;8701;50.150;8.756;2022-11-20T09:46:07;33.37;;;16.63;;
17171;SDS011;8701;50.150;8.756;2022-11-20T09:50:19;37.43;;;18.27;;
17171;SDS011;8701;50.150;8.756;2022-11-20T09:54:27;39.40;;;19.30;;
17171;SDS011;8701;50.150;8.756;2022-11-20T09:58:33;35.30;;;18.43;;
17171;SDS011;8701;50.150;8.756;2022-11-20T10:02:44;30.27;;;16.77;;
17171;SDS011;8701;50.150;8.756;2022-11-20T10:06:56;41.10;;;18.73;;
17171;SDS011;8701;50.150;8.756;2022-11-20T10:11:08;38.27;;;18.57;;
17171;SDS011;8701;50.150;8.756;2022-11-20T10:15:23;39.20;;;20.17;;
17171;SDS011;8701;50.150;8.756;2022-11-20T10:19:43;40.10;;;18.73;;
17171;SDS011;8701;50.150;8.756;2022-11-20T10:24:07;37.07;;;19.07;;
17171;SDS011;8701;50.150;8.756;2022-11-20T10:28:43;36.20;;;18.07;;
17171;SDS011;8701;50.150;8.756;2022-11-20T10:32:54;32.73;;;16.90;;
17171;SDS011;8701;50.150;8.756;2022-11-20T10:37:04;31.43;;;17.20;;
17171;SDS011;8701;50.150;8.756;2022-11-20T10:41:15;36.70;;;17.63;;
17171;SDS011;8701;50.150;8.756;2022-11-20T10:45:31;33.43;;;18.03;;
17171;SDS011;8701;50.150;8.756;2022-11-20T10:49:44;32.90;;;18.03;;
17171;SDS011;8701;50.150;8.756;2022-11-20T10:53:57;30.40;;;16.97;;
17171;SDS011;8701;50.150;8.756;2022-11-20T10:58:08;32.13;;;18.60;;
17171;SDS011;8701;50.150;8.756;2022-11-20T11:02:14;30.83;;;17.40;;
17171;SDS011;8701;50.150;8.756;2022-11-20T11:06:20;26.53;;;17.00;;
17171;SDS011;8701;50.150;8.756;2022-11-20T11:10:32;30.87;;;17.57;;
17171;SDS011;8701;50.150;8.756;2022-11-20T11:14:42;30.23;;;17.43;;
17171;SDS011;8701;50.150;8.756;2022-11-20T11:18:46;33.10;;;17.80;;
17171;SDS011;8701;50.150;8.756;2022-11-20T11:22:49;32.40;;;17.97;;
17171;SDS011;8701;50.150;8.756;2022-11-20T11:26:56;32.73;;;16.97;;
17171;SDS011;8701;50.150;8.756;2022-11-20T11:30:59;27.60;;;17.10;;
17171;SDS011;8701;50.150;8.756;2022-11-20T11:35:02;28.20;;;16.20;;
17171;SDS011;8701;50.150;8.756;2022-11-20T11:39:14;25.20;;;15.97;;
17171;SDS011;8701;50.150;8.756;2022-11-20T11:43:21;25.60;;;15.97;;
17171;SDS011;8701;50.150;8.756;2022-11-20T11:47:44;34.27;;;18.80;;
17171;SDS011;8701;50.150;8.756;2022-11-20T11:56:14;37.23;;;17.43;;
17171;SDS011;8701;50.150;8.756;2022-11-20T12:00:18;34.80;;;17.80;;
17171;SDS011;8701;50.150;8.756;2022-11-20T12:04:25;31.20;;;16.67;;
17171;SDS011;8701;50.150;8.756;2022-11-20T12:08:41;36.10;;;18.30;;
17171;SDS011;8701;50.150;8.756;2022-11-20T12:12:50;36.30;;;16.53;;
17171;SDS011;8701;50.150;8.756;2022-11-20T12:16:56;38.67;;;18.90;;
17171;SDS011;8701;50.150;8.756;2022-11-20T12:21:02;34.80;;;17.63;;
17171;SDS011;8701;50.150;8.756;2022-11-20T12:25:12;37.70;;;19.23;;
17171;SDS011;8701;50.150;8.756;2022-11-20T12:29:19;32.90;;;18.03;;
17171;SDS011;8701;50.150;8.756;2022-11-20T12:33:32;39.70;;;18.00;;
17171;SDS011;8701;50.150;8.756;2022-11-20T12:37:48;33.70;;;17.57;;
17171;SDS011;8701;50.150;8.756;2022-11-20T12:42:05;34.17;;;17.60;;
17171;SDS011;8701;50.150;8.756;2022-11-20T12:46:41;33.20;;;18.93;;
17171;SDS011;8701;50.150;8.756;2022-11-20T12:50:51;34.23;;;17.40;;
17171;SDS011;8701;50.150;8.756;2022-11-20T12:55:09;35.40;;;19.00;;
17171;SDS011;8701;50.150;8.756;2022-11-20T12:59:25;33.77;;;19.07;;
17171;SDS011;8701;50.150;8.756;2022-11-20T13:03:37;35.33;;;18.17;;
17171;SDS011;8701;50.150;8.756;2022-11-20T13:07:45;40.53;;;19.90;;
17171;SDS011;8701;50.150;8.756;2022-11-20T13:11:50;36.27;;;17.93;;
17171;SDS011;8701;50.150;8.756;2022-11-20T13:16:04;36.83;;;18.10;;
17171;SDS011;8701;50.150;8.756;2022-11-20T13:20:12;38.43;;;18.70;;
17171;SDS011;8701;50.150;8.756;2022-11-20T13:24:21;31.33;;;18.20;;
17171;SDS011;8701;50.150;8.756;2022-11-20T13:28:29;38.73;;;19.00;;
17171;SDS011;8701;50.150;8.756;2022-11-20T13:32:31;41.77;;;20.43;;
17171;SDS011;8701;50.150;8.756;2022-11-20T13:36:34;42.10;;;19.50;;
17171;SDS011;8701;50.150;8.756;2022-11-20T13:40:38;36.60;;;19.60;;
17171;SDS011;8701;50.150;8.756;2022-11-20T13:44:54;36.63;;;19.30;;
17171;SDS011;8701;50.150;8.756;2022-11-20T13:48:56;41.30;;;20.90;;
17171;SDS011;8701;50.150;8.756;2022-11-20T13:53:00;39.10;;;18.90;;
17171;SDS011;8701;50.150;8.756;2022-11-20T13:57:14;39.20;;;19.20;;
17171;SDS011;8701;50.150;8.756;2022-11-20T14:01:34;40.50;;;20.80;;
17171;SDS011;8701;50.150;8.756;2022-11-20T14:05:37;36.80;;;20.23;;
17171;SDS011;8701;50.150;8.756;2022-11-20T14:09:49;39.00;;;20.07;;
17171;SDS011;8701;50.150;8.756;2022-11-20T14:13:58;33.20;;;18.53;;
17171;SDS011;8701;50.150;8.756;2022-11-20T14:18:11;43.10;;;19.77;;
17171;SDS011;8701;50.150;8.756;2022-11-20T14:22:16;37.53;;;19.87;;
17171;SDS011;8701;50.150;8.756;2022-11-20T14:26:27;44.90;;;21.87;;
17171;SDS011;8701;50.150;8.756;2022-11-20T14:30:37;39.87;;;19.77;;
17171;SDS011;8701;50.150;8.756;2022-11-20T14:34:44;33.37;;;17.50;;
17171;SDS011;8701;50.150;8.756;2022-11-20T14:38:49;38.60;;;19.40;;
17171;SDS011;8701;50.150;8.756;2022-11-20T14:42:52;37.20;;;19.60;;
17171;SDS011;8701;50.150;8.756;2022-11-20T14:46:57;38.57;;;20.00;;
17171;SDS011;8701;50.150;8.756;2022-11-20T14:51:02;37.90;;;19.20;;
17171;SDS011;8701;50.150;8.756;2022-11-20T14:55:05;35.63;;;18.47;;
17171;SDS011;8701;50.150;8.756;2022-11-20T14:59:09;34.57;;;19.20;;
17171;SDS011;8701;50.150;8.756;2022-11-20T15:07:36;35.10;;;18.60;;
17171;SDS011;8701;50.150;8.756;2022-11-20T15:11:51;34.20;;;18.93;;
17171;SDS011;8701;50.150;8.756;2022-11-20T15:16:08;37.73;;;18.90;;
17171;SDS011;8701;50.150;8.756;2022-11-20T15:20:18;35.23;;;19.40;;
17171;SDS011;8701;50.150;8.756;2022-11-20T15:24:23;35.10;;;18.53;;
17171;SDS011;8701;50.150;8.756;2022-11-20T15:28:27;35.60;;;19.43;;
17171;SDS011;8701;50.150;8.756;2022-11-20T15:32:31;37.77;;;20.30;;
17171;SDS011;8701;50.150;8.756;2022-11-20T15:36:35;31.17;;;17.83;;
17171;SDS011;8701;50.150;8.756;2022-11-20T15:40:37;35.30;;;19.27;;
17171;SDS011;8701;50.150;8.756;2022-11-20T15:44:40;31.87;;;17.70;;
17171;SDS011;8701;50.150;8.756;2022-11-20T15:48:42;27.50;;;17.40;;
17171;SDS011;8701;50.150;8.756;2022-11-20T15:52:48;29.47;;;16.70;;
17171;SDS011;8701;50.150;8.756;2022-11-20T15:56:51;28.27;;;17.37;;
17171;SDS011;8701;50.150;8.756;2022-11-20T16:00:53;30.03;;;16.27;;
17171;SDS011;8701;50.150;8.756;2022-11-20T16:04:56;30.83;;;16.30;;
17171;SDS011;8701;50.150;8.756;2022-11-20T16:09:00;29.60;;;16.30;;
17171;SDS011;8701;50.150;8.756;2022-11-20T16:13:02;29.90;;;16.80;;
17171;SDS011;8701;50.150;8.756;2022-11-20T16:17:22;30.17;;;15.63;;
17171;SDS011;8701;50.150;8.756;2022-11-20T16:21:45;27.50;;;15.47;;
17171;SDS011;8701;50.150;8.756;2022-11-20T16:25:49;25.00;;;15.03;;
17171;SDS011;8701;50.150;8.756;2022-11-20T16:29:56;23.00;;;14.10;;
17171;SDS011;8701;50.150;8.756;2022-11-20T16:33:58;27.13;;;16.17;;
17171;SDS011;8701;50.150;8.756;2022-11-20T16:38:02;20.47;;;13.83;;
17171;SDS011;8701;50.150;8.756;2022-11-20T16:42:06;20.00;;;12.33;;
17171;SDS011;8701;50.150;8.756;2022-11-20T16:46:08;22.20;;;13.57;;
17171;SDS011;8701;50.150;8.756;2022-11-20T16:50:11;20.57;;;12.43;;
17171;SDS011;8701;50.150;8.756;2022-11-20T16:54:14;16.67;;;11.27;;
17171;SDS011;8701;50.150;8.756;2022-11-20T16:58:18;18.03;;;11.50;;
17171;SDS011;8701;50.150;8.756;2022-11-20T17:02:20;19.47;;;12.17;;
17171;SDS011;8701;50.150;8.756;2022-11-20T17:06:24;18.70;;;11.30;;
17171;SDS011;8701;50.150;8.756;2022-11-20T17:10:29;15.70;;;11.20;;
17171;SDS011;8701;50.150;8.756;2022-11-20T17:14:33;23.10;;;13.10;;
17171;SDS011;8701;50.150;8.756;2022-11-20T17:18:35;15.50;;;10.93;;
17171;SDS011;8701;50.150;8.756;2022-11-20T17:26:47;17.80;;;11.43;;
17171;SDS011;8701;50.150;8.756;2022-11-20T17:30:51;17.40;;;11.30;;
17171;SDS011;8701;50.150;8.756;2022-11-20T17:34:54;18.83;;;12.17;;
17171;SDS011;8701;50.150;8.756;2022-11-20T17:38:58;20.83;;;12.67;;
17171;SDS011;8701;50.150;8.756;2022-11-20T17:43:00;22.57;;;13.90;;
17171;SDS011;8701;50.150;8.756;2022-11-20T17:47:04;19.17;;;11.40;;
17171;SDS011;8701;50.150;8.756;2022-11-20T17:51:06;19.53;;;12.07;;
17171;SDS011;8701;50.150;8.756;2022-11-20T17:55:10;20.60;;;12.23;;
17171;SDS011;8701;50.150;8.756;2022-11-20T17:59:12;17.30;;;12.03;;
17171;SDS011;8701;50.150;8.756;2022-11-20T18:03:16;15.90;;;10.50;;
17171;SDS011;8701;50.150;8.756;2022-11-20T18:07:18;16.97;;;11.63;;
17171;SDS011;8701;50.150;8.756;2022-11-20T18:11:21;18.13;;;11.37;;
17171;SDS011;8701;50.150;8.756;2022-11-20T18:15:25;20.80;;;12.83;;
17171;SDS011;8701;50.150;8.756;2022-11-20T18:19:29;18.50;;;12.60;;
17171;SDS011;8701;50.150;8.756;2022-11-20T18:23:33;18.33;;;11.77;;
17171;SDS011;8701;50.150;8.756;2022-11-20T18:27:35;18.10;;;12.13;;
17171;SDS011;8701;50.150;8.756;2022-11-20T18:31:38;17.80;;;12.07;;
17171;SDS011;8701;50.150;8.756;2022-11-20T18:35:42;21.77;;;12.20;;
17171;SDS011;8701;50.150;8.756;2022-11-20T18:39:44;18.40;;;11.80;;
17171;SDS011;8701;50.150;8.756;2022-11-20T18:43:46;17.80;;;11.83;;
17171;SDS011;8701;50.150;8.756;2022-11-20T18:48:06;16.50;;;11.13;;
17171;SDS011;8701;50.150;8.756;2022-11-20T18:52:10;18.40;;;12.33;;
17171;SDS011;8701;50.150;8.756;2022-11-20T18:56:12;16.80;;;11.43;;
17171;SDS011;8701;50.150;8.756;2022-11-20T19:00:15;16.77;;;8.50;;
17171;SDS011;8701;50.150;8.756;2022-11-20T19:04:17;9.70;;;5.20;;
17171;SDS011;8701;50.150;8.756;2022-11-20T19:08:21;13.43;;;5.93;;
17171;SDS011;8701;50.150;8.756;2022-11-20T19:12:24;10.00;;;4.77;;
17171;SDS011;8701;50.150;8.756;2022-11-20T19:16:27;8.50;;;4.50;;
17171;SDS011;8701;50.150;8.756;2022-11-20T19:20:29;4.70;;;4.10;;
17171;SDS011;8701;50.150;8.756;2022-11-20T19:24:33;6.07;;;4.20;;
17171;SDS011;8701;50.150;8.756;2022-11-20T19:28:36;7.40;;;4.30;;
17171;SDS011;8701;50.150;8.756;2022-11-20T19:32:39;4.43;;;3.57;;
17171;SDS011;8701;50.150;8.756;2022-11-20T19:36:41;5.80;;;4.00;;
17171;SDS011;8701;50.150;8.756;2022-11-20T19:40:45;6.00;;;3.70;;
17171;SDS011;8701;50.150;8.756;2022-11-20T19:44:47;10.13;;;3.83;;
17171;SDS011;8701;50.150;8.756;2022-11-20T19:48:50;4.80;;;3.50;;
17171;SDS011;8701;50.150;8.756;2022-11-20T19:52:53;4.03;;;3.30;;
17171;SDS011;8701;50.150;8.756;2022-11-20T19:56:57;4.27;;;3.83;;
17171;SDS011;8701;50.150;8.756;2022-11-20T20:01:04;7.40;;;3.93;;
17171;SDS011;8701;50.150;8.756;2022-11-20T20:05:09;4.47;;;2.70;;
17171;SDS011;8701;50.150;8.756;2022-11-20T20:09:15;5.00;;;2.73;;
17171;SDS011;8701;50.150;8.756;2022-11-20T20:13:19;4.33;;;2.90;;
17171;SDS011;8701;50.150;8.756;2022-11-20T20:17:21;3.73;;;2.93;;
17171;SDS011;8701;50.150;8.756;2022-11-20T20:21:24;3.97;;;2.30;;
17171;SDS011;8701;50.150;8.756;2022-11-20T20:25:31;2.60;;;2.40;;
17171;SDS011;8701;50.150;8.756;2022-11-20T20:29:35;3.53;;;2.67;;
17171;SDS011;8701;50.150;8.756;2022-11-20T20:33:38;3.83;;;2.90;;
17171;SDS011;8701;50.150;8.756;2022-11-20T20:37:41;5.10;;;2.40;;
17171;SDS011;8701;50.150;8.756;2022-11-20T20:41:43;3.73;;;2.50;;
17171;SDS011;8701;50.150;8.756;2022-11-20T20:45:47;10.67;;;3.13;;
17171;SDS011;8701;50.150;8.756;2022-11-20T20:49:50;4.97;;;2.57;;
17171;SDS011;8701;50.150;8.756;2022-11-20T20:53:55;4.80;;;2.27;;
17171;SDS011;8701;50.150;8.756;2022-11-20T20:58:01;3.53;;;2.40;;
17171;SDS011;8701;50.150;8.756;2022-11-20T21:02:07;5.03;;;2.30;;
17171;SDS011;8701;50.150;8.756;2022-11-20T21:06:10;4.60;;;1.77;;
17171;SDS011;8701;50.150;8.756;2022-11-20T21:10:15;3.33;;;2.20;;
17171;SDS011;8701;50.150;8.756;2022-11-20T21:14:18;2.67;;;1.73;;
17171;SDS011;8701;50.150;8.756;2022-11-20T21:18:23;2.30;;;1.50;;
17171;SDS011;8701;50.150;8.756;2022-11-20T21:22:27;4.17;;;3.40;;
17171;SDS011;8701;50.150;8.756;2022-11-20T21:26:29;4.00;;;1.80;;
17171;SDS011;8701;50.150;8.756;2022-11-20T21:30:33;1.97;;;1.60;;
17171;SDS011;8701;50.150;8.756;2022-11-20T21:34:37;2.23;;;1.63;;
17171;SDS011;8701;50.150;8.756;2022-11-20T21:38:39;1.90;;;1.70;;
17171;SDS011;8701;50.150;8.756;2022-11-20T21:42:42;3.50;;;1.40;;
17171;SDS011;8701;50.150;8.756;2022-11-20T21:46:46;4.30;;;1.50;;
17171;SDS011;8701;50.150;8.756;2022-11-20T21:50:51;6.43;;;1.77;;
17171;SDS011;8701;50.150;8.756;2022-11-20T21:54:54;1.30;;;1.20;;
17171;SDS011;8701;50.150;8.756;2022-11-20T21:58:57;3.60;;;1.33;;
17171;SDS011;8701;50.150;8.756;2022-11-20T22:03:00;1.03;;;1.03;;
17171;SDS011;8701;50.150;8.756;2022-11-20T22:07:05;1.30;;;1.20;;
17171;SDS011;8701;50.150;8.756;2022-11-20T22:11:08;1.40;;;1.30;;
17171;SDS011;8701;50.150;8.756;2022-11-20T22:15:12;1.77;;;1.13;;
17171;SDS011;8701;50.150;8.756;2022-11-20T22:19:17;2.03;;;1.33;;
17171;SDS011;8701;50.150;8.756;2022-11-20T22:23:21;2.13;;;1.40;;
17171;SDS011;8701;50.150;8.756;2022-11-20T22:27:23;2.00;;;1.30;;
17171;SDS011;8701;50.150;8.756;2022-11-20T22:31:26;1.33;;;1.23;;
17171;SDS011;8701;50.150;8.756;2022-11-20T22:35:30;1.73;;;1.20;;
17171;SDS011;8701;50.150;8.756;2022-11-20T22:39:34;2.27;;;1.13;;
17171;SDS011;8701;50.150;8.756;2022-11-20T22:43:37;1.33;;;1.30;;
17171;SDS011;8701;50.150;8.756;2022-11-20T22:47:40;2.60;;;1.30;;
17171;SDS011;8701;50.150;8.756;2022-11-20T22:51:42;1.30;;;1.20;;
17171;SDS011;8701;50.150;8.756;2022-11-20T22:55:48;1.97;;;1.33;;
17171;SDS011;8701;50.150;8.756;2022-11-20T22:59:51;3.47;;;1.50;;
17171;SDS011;8701;50.150;8.756;2022-11-20T23:03:54;1.90;;;1.43;;
17171;SDS011;8701;50.150;8.756;2022-11-20T23:07:57;2.20;;;1.73;;
17171;SDS011;8701;50.150;8.756;2022-11-20T23:12:09;1.30;;;1.20;;
17171;SDS011;8701;50.150;8.756;2022-11-20T23:16:12;1.63;;;1.20;;
17171;SDS011;8701;50.150;8.756;2022-11-20T23:20:15;2.57;;;1.37;;
17171;SDS011;8701;50.150;8.756;2022-11-20T23:24:18;3.40;;;1.30;;
17171;SDS011;8701;50.150;8.756;2022-11-20T23:28:21;3.07;;;1.33;;
17171;SDS011;8701;50.150;8.756;2022-11-20T23:32:24;5.53;;;1.30;;
17171;SDS011;8701;50.150;8.756;2022-11-20T23:36:41;4.50;;;1.40;;
17171;SDS011;8701;50.150;8.756;2022-11-20T23:40:45;4.10;;;1.50;;
17171;SDS011;8701;50.150;8.756;2022-11-20T23:44:49;4.30;;;1.80;;
17171;SDS011;8701;50.150;8.756;2022-11-20T23:48:52;11.93;;;1.47;;
17171;SDS011;8701;50.150;8.756;2022-11-20T23:52:54;3.53;;;1.30;;
17171;SDS011;8701;50.150;8.756;2022-11-20T23:56:56;5.43;;;1.13;;
